Frédéric Clozier

Frédéric Clozier

Statistiques 2026

  • Courses courues : 353
  • Nb de victoires : 34
  • Nb de places : 87
  • Écart gagnant : 1
  • Réussite à la gagne : 10%
  • Réussite à la place : 25%
Musique : 3a 0a 1a Da 4a Da Da Aa Da 2a 7a 9a Da 3a 8a 8a 2a 0a
DateRangCatégorieAlloc.Dist.HippodromeChevalRed. KmSpé.
01/12/13 D Trot 13 000€ 2 150m Toulouse Angelica Danover Attelé
01/12/13 4 Trot 15 000€ 2 975m Toulouse Uranie du Soleil 1'17"8 Attelé
01/12/13 3 Trot 25 000€ 2 975m Toulouse Rusty de Vive 1'15"6 Attelé
01/12/13 1 Trot 19 000€ 2 150m Toulouse Village d'Ortige 1'18"0 Attelé
01/12/13 0 Trot 19 000€ 2 150m Toulouse Vanina de Lord Attelé
30/12/13 D Trot 20 000€ 2 950m Toulouse Arcane du Dane Attelé
30/12/13 7 Trot 20 000€ 2 750m Toulouse Uranie du Soleil 1'18"8 Attelé
30/12/13 5 Trot 32 000€ 3 625m Toulouse Saxo de Ligny 1'17"4 Attelé
30/12/13 D Trot 22 000€ 2 950m Toulouse Tantine d'Angis Attelé
30/12/13 7 Trot 20 000€ 2 150m Toulouse Village d'Ortige 1'18"2 Attelé
05/01/14 4 Trot 12 000€ 2 150m Toulouse Aura Matyss 1'18"9 Attelé
05/01/14 2 Trot 15 000€ 2 950m Toulouse Very Good Lord 1'20"0 Attelé
13/01/14 D Trot 16 000€ 2 325m Toulouse Brave Rider Attelé
13/01/14 2 Trot 24 000€ 2 750m Toulouse Uno de Warens 1'17"7 Attelé
13/01/14 7 Trot 18 000€ 2 350m Toulouse Vanda Cadence 1'19"0 Attelé
13/01/14 2 Trot 30 000€ 2 975m Toulouse Scarlet Kep 1'16"8 Attelé
13/01/14 8 Trot 18 000€ 2 325m Toulouse Vichy Locnol 1'19"2 Attelé
15/01/14 4 Trot 35 000€ 2 750m Toulouse Saxo de Ligny 1'15"8 Attelé lire

Longtemps attentiste, a su gagné du terrain tout au long de la phase finale.

19/01/14 4 Trot 12 000€ 2 325m Toulouse Brume de la Brise 1'20"7 Attelé
19/01/14 0 Trot 25 000€ 2 975m Toulouse Quad Censerie Attelé
19/01/14 4 Trot 17 000€ 2 950m Toulouse Tierra du Jouan 1'18"4 Attelé
19/01/14 D Trot 13 000€ 2 325m Toulouse Adeline Celina Attelé
20/01/14 4 Trot 12 000€ 2 325m Toulouse Agathe Flav 1'19"1 Attelé
20/01/14 D Trot 16 000€ 2 750m Toulouse Uranie du Soleil Attelé
20/01/14 D Trot 22 000€ 2 750m Toulouse Ramses des Rouches Attelé
27/01/14 8 Trot 18 000€ 2 150m Toulouse Vermouth d'Erable 1'20"1 Attelé
27/01/14 4 Trot 24 000€ 2 950m Toulouse Sydney Cobba 1'17"9 Attelé
26/01/14 7 Trot 13 000€ 2 150m Toulouse Amokie Louzeene 1'19"8 Attelé
26/01/14 1 Trot 14 000€ 2 975m Toulouse Venus Flam 1'18"6 Attelé
26/01/14 0 Trot 18 000€ 2 950m Toulouse Speedy de Marzy Attelé
22/02/14 6 Trot 21 000€ 2 950m Toulouse Vesuve Nathanpi 1'17"8 Attelé
22/02/14 3 Trot 28 000€ 2 750m Toulouse Roi des Ajoncs 1'17"2 Attelé
22/02/14 D Trot 21 000€ 2 350m Toulouse Un Reve de Jafa Attelé
11/04/14 8 Trot 17 000€ 2 150m Toulouse Bahia de Bougy 1'19"0 Attelé
11/04/14 4 Trot 24 000€ 2 975m Toulouse Un Grand Meaulnes 1'17"9 Attelé
11/04/14 7 Trot 17 000€ 2 750m Toulouse Atomic d'Alsace 1'19"0 Attelé
11/04/14 9 Trot 19 000€ 2 750m Toulouse Uranus de Jalousie 1'18"3 Attelé
11/04/14 9 Trot 18 000€ 2 325m Toulouse Vega de Ligny 1'19"8 Attelé
02/05/14 D Trot 12 000€ 2 150m Toulouse Brilladora Attelé
02/05/14 9 Trot 12 000€ 2 150m Toulouse Bagad d'Ulveine 1'19"8 Attelé
02/05/14 0 Trot 14 000€ 2 325m Toulouse Aronde de Glaniere Attelé
09/05/14 7 Trot 18 000€ 2 950m Toulouse Ursula Sirault 1'18"7 Attelé
09/05/14 D Trot 22 000€ 2 150m Toulouse Bonus d'Acanthe Attelé
09/05/14 D Trot 32 000€ 2 975m Toulouse Rocco Darche Attelé
09/05/14 D Trot 22 000€ 2 950m Toulouse Very Good Lord Attelé
09/05/14 9 Trot 22 000€ 2 975m Toulouse Athos Gabinlea 1'16"9 Attelé
16/05/14 6 Trot 35 000€ 2 150m Toulouse Parkin 1'16"0 Attelé
16/05/14 0 Trot 13 000€ 2 325m Toulouse Agathe Flav Attelé
23/05/14 5 Trot 18 000€ 2 150m Toulouse Altesse du Parc 1'18"7 Attelé
23/05/14 1 Trot 18 000€ 2 750m Toulouse Venus du Chene 1'19"0 Attelé